createdAt,value
2022-08-04T00:00:06.118Z,47.0450
2022-08-04T00:00:17.183Z,47.0580
2022-08-04T00:00:28.251Z,47.0770
2022-08-04T00:00:40.315Z,47.1130
2022-08-04T00:00:51.378Z,47.0770
2022-08-04T00:01:02.535Z,47.0580
2022-08-04T00:01:13.631Z,47.0580
2022-08-04T00:01:24.693Z,47.0520
2022-08-04T00:01:35.750Z,47.0730
2022-08-04T00:01:48.302Z,47.1350
2022-08-04T00:01:59.436Z,47.0870
2022-08-04T00:02:10.608Z,47.0870
2022-08-04T00:02:21.682Z,47.0770
2022-08-04T00:02:32.749Z,47.0710
2022-08-04T00:02:43.831Z,47.0610
2022-08-04T00:02:55.977Z,47.1410
2022-08-04T00:03:07.054Z,47.1010
2022-08-04T00:03:18.125Z,47.1270
2022-08-04T00:03:29.174Z,47.1070
2022-08-04T00:03:40.368Z,47.1010
2022-08-04T00:03:51.417Z,47.1210
2022-08-04T00:04:06.546Z,47.3270
2022-08-04T00:04:17.626Z,47.2250
2022-08-04T00:04:28.707Z,47.2010
2022-08-04T00:04:39.919Z,47.1730
2022-08-04T00:04:50.969Z,47.1670
2022-08-04T00:05:02.053Z,47.1470
2022-08-04T00:05:16.599Z,47.3270
2022-08-04T00:05:27.662Z,47.2250
2022-08-04T00:05:38.737Z,47.1690
2022-08-04T00:05:49.810Z,47.1910
2022-08-04T00:06:00.860Z,47.1730
2022-08-04T00:06:12.208Z,47.1730
2022-08-04T00:06:24.452Z,47.2770
2022-08-04T00:06:35.529Z,47.2250
2022-08-04T00:06:46.586Z,47.2130
2022-08-04T00:06:57.656Z,47.2190
2022-08-04T00:07:08.723Z,47.2070
2022-08-04T00:07:19.991Z,47.2490
2022-08-04T00:07:44.143Z,47.4540
2022-08-04T00:07:53.728Z,47.5260
2022-08-04T00:08:04.787Z,47.3770
2022-08-04T00:08:16.001Z,47.2890
2022-08-04T00:08:27.081Z,47.2770
2022-08-04T00:08:38.130Z,47.2890
2022-08-04T00:08:49.219Z,47.2690
2022-08-04T00:09:00.305Z,47.2690
2022-08-04T00:09:11.372Z,47.2690
2022-08-04T00:09:22.447Z,47.2810
2022-08-04T00:09:33.526Z,47.2990
2022-08-04T00:09:44.725Z,47.3050
2022-08-04T00:09:55.779Z,47.2870
2022-08-04T00:10:06.831Z,47.2870
2022-08-04T00:10:18.032Z,47.2810
2022-08-04T00:10:29.111Z,47.2810
2022-08-04T00:10:40.180Z,47.2550
2022-08-04T00:10:51.266Z,47.2690
2022-08-04T00:11:02.339Z,47.2690
2022-08-04T00:11:15.587Z,47.2870
2022-08-04T00:11:26.828Z,47.4480
2022-08-04T00:11:37.890Z,47.3640
2022-08-04T00:11:49.110Z,47.3330
2022-08-04T00:12:00.147Z,47.3210
2022-08-04T00:12:11.217Z,47.3030
2022-08-04T00:12:22.270Z,47.2930
2022-08-04T00:12:39.776Z,47.5160
2022-08-04T00:12:51.185Z,47.4020
2022-08-04T00:13:02.272Z,47.3370
2022-08-04T00:13:13.342Z,47.2810
2022-08-04T00:13:24.383Z,47.2690
2022-08-04T00:13:35.445Z,47.2690
2022-08-04T00:13:58.077Z,47.3050
2022-08-04T00:14:03.869Z,47.5600
2022-08-04T00:14:15.263Z,47.4820
2022-08-04T00:14:26.324Z,47.3710
2022-08-04T00:14:37.392Z,47.3770
2022-08-04T00:14:48.456Z,47.3640
2022-08-04T00:14:59.523Z,47.3520
2022-08-04T00:15:10.579Z,47.3330
2022-08-04T00:15:25.970Z,47.5500
2022-08-04T00:15:37.032Z,47.4260
2022-08-04T00:15:48.102Z,47.3900
2022-08-04T00:15:59.180Z,47.3770
2022-08-04T00:16:10.271Z,47.3570
2022-08-04T00:16:21.357Z,47.3520
2022-08-04T00:16:34.821Z,47.3570
2022-08-04T00:16:49.346Z,47.5880
2022-08-04T00:17:00.391Z,47.5000
2022-08-04T00:17:11.782Z,47.4320
2022-08-04T00:17:23.032Z,47.4260
2022-08-04T00:17:34.263Z,47.4580
2022-08-04T00:17:45.310Z,47.4520
2022-08-04T00:17:56.741Z,47.4520
2022-08-04T00:18:07.864Z,47.4760
2022-08-04T00:18:18.914Z,47.4580
2022-08-04T00:18:29.977Z,47.4520
2022-08-04T00:18:41.050Z,47.4700
2022-08-04T00:18:52.121Z,47.4640
2022-08-04T00:19:03.202Z,47.4460
2022-08-04T00:19:14.399Z,47.4380
2022-08-04T00:19:25.595Z,47.4580
2022-08-04T00:19:36.646Z,47.4920
2022-08-04T00:19:47.705Z,47.5040
2022-08-04T00:19:58.791Z,47.5160
2022-08-04T00:20:09.839Z,47.5220
2022-08-04T00:20:20.910Z,47.5260
2022-08-04T00:20:31.970Z,47.5320
2022-08-04T00:20:43.015Z,47.5320
2022-08-04T00:20:54.079Z,47.5220
2022-08-04T00:21:05.155Z,47.5460
2022-08-04T00:21:16.330Z,47.5460
2022-08-04T00:21:27.518Z,47.5600
2022-08-04T00:21:38.581Z,47.5320
2022-08-04T00:21:49.623Z,47.5060
2022-08-04T00:22:00.685Z,47.5060
2022-08-04T00:22:11.761Z,47.4940
2022-08-04T00:22:22.827Z,47.4880
2022-08-04T00:22:33.871Z,47.5060
2022-08-04T00:22:44.944Z,47.5060
2022-08-04T00:22:56.024Z,47.5060
2022-08-04T00:23:07.097Z,47.5200
2022-08-04T00:23:18.399Z,47.4940
2022-08-04T00:24:10.791Z,47.5140
2022-08-04T00:24:11.466Z,47.7770
2022-08-04T00:24:12.280Z,47.9000
2022-08-04T00:24:20.358Z,47.9660
2022-08-04T00:24:31.429Z,47.8070
2022-08-04T00:24:42.509Z,47.7160
2022-08-04T00:24:53.559Z,47.6550
2022-08-04T00:25:04.643Z,47.6580
2022-08-04T00:25:15.851Z,47.6460
2022-08-04T00:25:28.159Z,47.6970
2022-08-04T00:25:39.201Z,47.6530
2022-08-04T00:25:50.377Z,47.6120
2022-08-04T00:26:01.447Z,47.5960
2022-08-04T00:26:12.505Z,47.5840
2022-08-04T00:26:23.581Z,47.5720
2022-08-04T00:26:37.489Z,47.7150
2022-08-04T00:26:48.839Z,47.6080
2022-08-04T00:26:59.878Z,47.6030
2022-08-04T00:27:10.948Z,47.5960
2022-08-04T00:27:22.452Z,47.5900
2022-08-04T00:27:36.283Z,47.6650
2022-08-04T00:27:47.528Z,47.7430
2022-08-04T00:27:58.590Z,47.6580
2022-08-04T00:28:09.648Z,47.6580
2022-08-04T00:28:20.899Z,47.6460
2022-08-04T00:28:31.972Z,47.6550
2022-08-04T00:28:43.038Z,47.6400
2022-08-04T00:28:54.078Z,47.6460
2022-08-04T00:29:05.160Z,47.6460
2022-08-04T00:29:16.239Z,47.6530
2022-08-04T00:29:27.280Z,47.6250
2022-08-04T00:29:38.361Z,47.6430
2022-08-04T00:29:49.413Z,47.6490
2022-08-04T00:30:04.091Z,47.8360
2022-08-04T00:30:15.157Z,47.6970
2022-08-04T00:30:26.195Z,47.6550
2022-08-04T00:30:37.264Z,47.6030
2022-08-04T00:30:48.332Z,47.5660
2022-08-04T00:30:59.424Z,47.5560
2022-08-04T00:31:11.020Z,47.6120
2022-08-04T00:31:53.669Z,47.6310
2022-08-04T00:31:54.923Z,47.8460
2022-08-04T00:31:57.927Z,47.9620
2022-08-04T00:32:09.408Z,47.8800
2022-08-04T00:32:34.317Z,47.7430
2022-08-04T00:32:37.430Z,47.9220
2022-08-04T00:32:48.502Z,47.8410
2022-08-04T00:32:59.578Z,47.7490
2022-08-04T00:33:10.639Z,47.7370
2022-08-04T00:33:21.728Z,47.7230
2022-08-04T00:33:32.799Z,47.7430
2022-08-04T00:33:43.851Z,47.7230
2022-08-04T00:33:55.037Z,47.7230
2022-08-04T00:34:06.103Z,47.7480
2022-08-04T00:34:17.178Z,47.7220
2022-08-04T00:34:28.240Z,47.6990
2022-08-04T00:34:39.320Z,47.7110
2022-08-04T00:34:50.387Z,47.7170
2022-08-04T00:35:03.834Z,47.8420
2022-08-04T00:35:15.126Z,47.7610
2022-08-04T00:35:26.345Z,47.7170
2022-08-04T00:35:37.410Z,47.7370
2022-08-04T00:35:48.450Z,47.7230
2022-08-04T00:35:59.648Z,47.7670
2022-08-04T00:36:10.711Z,47.7720
2022-08-04T00:36:21.785Z,47.7550
2022-08-04T00:36:32.862Z,47.7430
2022-08-04T00:36:43.923Z,47.7540
2022-08-04T00:36:54.963Z,47.7540
2022-08-04T00:37:06.030Z,47.7670
2022-08-04T00:37:17.501Z,47.8230
2022-08-04T00:37:28.580Z,47.8010
2022-08-04T00:37:39.641Z,47.8010
2022-08-04T00:37:50.720Z,47.7950
2022-08-04T00:38:01.788Z,47.8070
2022-08-04T00:38:12.862Z,47.8070
2022-08-04T00:38:23.956Z,47.7820
2022-08-04T00:38:35.016Z,47.7820
2022-08-04T00:38:47.361Z,47.8490
2022-08-04T00:38:58.454Z,47.8230
2022-08-04T00:39:09.582Z,47.7670
2022-08-04T00:39:20.740Z,47.7540
2022-08-04T00:39:31.926Z,47.7600
2022-08-04T00:39:43.201Z,47.7670
2022-08-04T00:39:54.289Z,47.7970
2022-08-04T00:40:05.364Z,47.7850
2022-08-04T00:40:16.740Z,47.7970
2022-08-04T00:40:29.046Z,47.8130
2022-08-04T00:40:40.281Z,47.8990
2022-08-04T00:40:51.321Z,47.8690
2022-08-04T00:41:02.391Z,47.8630
2022-08-04T00:41:13.456Z,47.8570
2022-08-04T00:41:24.569Z,47.8490
2022-08-04T00:41:35.641Z,47.8310
2022-08-04T00:41:56.430Z,48.0680
2022-08-04T00:42:08.427Z,48.1610
2022-08-04T00:42:19.638Z,47.9370
2022-08-04T00:42:30.703Z,47.8870
2022-08-04T00:42:58.159Z,47.8910
2022-08-04T00:42:59.600Z,48.1210
2022-08-04T00:43:10.849Z,48.0610
2022-08-04T00:43:21.906Z,47.9340
2022-08-04T00:43:33.021Z,47.8910
2022-08-04T00:43:44.084Z,47.8750
2022-08-04T00:43:55.160Z,47.8370
2022-08-04T00:44:06.228Z,47.8310
2022-08-04T00:44:24.000Z,47.8490
2022-08-04T00:44:34.271Z,48.1170
2022-08-04T00:44:45.339Z,48.0520
2022-08-04T00:44:56.379Z,47.9860
2022-08-04T00:45:07.457Z,47.9440
2022-08-04T00:45:18.521Z,47.9250
2022-08-04T00:45:29.590Z,47.8990
2022-08-04T00:46:15.004Z,48.2660
2022-08-04T00:46:15.178Z,48.1790
2022-08-04T00:46:20.493Z,48.3120
2022-08-04T00:46:31.560Z,48.1390
2022-08-04T00:46:42.618Z,48.0520
2022-08-04T00:46:53.794Z,48.0000
2022-08-04T00:47:04.876Z,47.9740
2022-08-04T00:47:15.956Z,47.9460
2022-08-04T00:47:27.132Z,47.9440
2022-08-04T00:47:38.196Z,47.9060
2022-08-04T00:47:49.269Z,47.8810
2022-08-04T00:48:00.310Z,47.8910
2022-08-04T00:48:11.354Z,47.8770
2022-08-04T00:48:22.425Z,47.8910
2022-08-04T00:48:33.506Z,47.9110
2022-08-04T00:48:44.585Z,47.9110
2022-08-04T00:48:55.920Z,47.9170
2022-08-04T00:49:06.985Z,47.9310
2022-08-04T00:49:18.024Z,47.9310
2022-08-04T00:49:29.247Z,47.9740
2022-08-04T00:49:40.313Z,47.9800
2022-08-04T00:49:51.362Z,47.9620
2022-08-04T00:50:02.448Z,47.9560
2022-08-04T00:50:13.490Z,47.9440
2022-08-04T00:50:24.580Z,47.9370
2022-08-04T00:50:35.643Z,47.9500
2022-08-04T00:50:46.711Z,47.9620
2022-08-04T00:50:57.897Z,47.9800
2022-08-04T00:51:08.951Z,48.0000
2022-08-04T00:51:20.012Z,48.0000
2022-08-04T00:51:31.205Z,48.0120
2022-08-04T00:51:42.267Z,47.9920
2022-08-04T00:52:30.684Z,48.0180
2022-08-04T00:52:30.906Z,48.2640
2022-08-04T00:52:31.349Z,48.3530
2022-08-04T00:52:44.198Z,48.3690
2022-08-04T00:52:55.267Z,48.2080
2022-08-04T00:53:06.347Z,48.1390
2022-08-04T00:53:17.411Z,48.1430
2022-08-04T00:53:28.467Z,48.1290
2022-08-04T00:53:39.567Z,48.0990
2022-08-04T00:53:56.527Z,48.3390
2022-08-04T00:54:07.601Z,48.2380
2022-08-04T00:54:18.953Z,48.1510
2022-08-04T00:54:30.320Z,48.1390
2022-08-04T00:54:41.366Z,48.1330
2022-08-04T00:54:52.433Z,48.1210
2022-08-04T00:55:06.873Z,48.0950
2022-08-04T00:55:20.480Z,48.3330
2022-08-04T00:55:31.666Z,48.2640
2022-08-04T00:55:42.732Z,48.1750
2022-08-04T00:55:53.798Z,48.1170
2022-08-04T00:56:04.850Z,48.1110
2022-08-04T00:56:15.899Z,48.0800
2022-08-04T00:56:26.963Z,48.0870
2022-08-04T00:56:38.022Z,48.0870
2022-08-04T00:56:49.228Z,48.0740
2022-08-04T00:57:00.281Z,48.0740
2022-08-04T00:57:28.577Z,48.0540
2022-08-04T00:57:33.674Z,48.3450
2022-08-04T00:57:45.287Z,48.4690
2022-08-04T00:57:56.353Z,48.3100
2022-08-04T00:58:07.409Z,48.1830
2022-08-04T00:58:18.492Z,48.1510
2022-08-04T00:58:29.570Z,48.1510
2022-08-04T00:58:40.674Z,48.1330
2022-08-04T00:58:51.876Z,48.1390
2022-08-04T00:59:02.984Z,48.1330
2022-08-04T00:59:14.054Z,48.1270
2022-08-04T00:59:25.100Z,48.1210
2022-08-04T00:59:36.164Z,48.0950
2022-08-04T00:59:47.219Z,48.1010
2022-08-04T00:59:58.294Z,48.1010
2022-08-04T01:00:09.340Z,48.0950
2022-08-04T01:00:20.419Z,48.1150
2022-08-04T01:00:31.500Z,48.1150
2022-08-04T01:00:42.582Z,48.1150
2022-08-04T01:00:53.801Z,48.1390
2022-08-04T01:01:05.164Z,48.1630
2022-08-04T01:01:16.315Z,48.1630
2022-08-04T01:01:27.477Z,48.1450
2022-08-04T01:01:38.644Z,48.1080
2022-08-04T01:01:49.833Z,48.0950
2022-08-04T01:02:00.934Z,48.0830
2022-08-04T01:02:12.013Z,48.0480
2022-08-04T01:02:23.225Z,48.0480
2022-08-04T01:02:34.296Z,48.0760
2022-08-04T01:02:45.348Z,48.0700
2022-08-04T01:02:56.624Z,48.0640
2022-08-04T01:03:07.686Z,48.1150
2022-08-04T01:03:19.006Z,48.1210
2022-08-04T01:03:30.065Z,48.0940
2022-08-04T01:03:41.180Z,48.0940
2022-08-04T01:03:52.233Z,48.1010
2022-08-04T01:04:03.345Z,48.0890
2022-08-04T01:04:14.409Z,48.0760
2022-08-04T01:04:31.387Z,48.2940
2022-08-04T01:04:42.481Z,48.2010
2022-08-04T01:04:53.565Z,48.1010
2022-08-04T01:05:04.645Z,48.0820
2022-08-04T01:05:15.714Z,48.0820
2022-08-04T01:05:26.909Z,48.0640
2022-08-04T01:05:38.402Z,48.0640
2022-08-04T01:05:49.677Z,48.1080
2022-08-04T01:06:01.093Z,48.0760
2022-08-04T01:06:12.156Z,48.0640
2022-08-04T01:06:23.222Z,48.0460
2022-08-04T01:06:34.282Z,48.0260
2022-08-04T01:06:45.348Z,48.0340
2022-08-04T01:07:02.323Z,48.2580
2022-08-04T01:07:13.386Z,48.1730
2022-08-04T01:07:24.445Z,48.1040
2022-08-04T01:07:35.508Z,48.0980
2022-08-04T01:07:46.559Z,48.0920
2022-08-04T01:07:57.593Z,48.0920
2022-08-04T01:08:08.664Z,48.0920
2022-08-04T01:08:19.724Z,48.0800
2022-08-04T01:08:30.934Z,48.0660
2022-08-04T01:08:42.031Z,48.0860
2022-08-04T01:08:53.093Z,48.0600
2022-08-04T01:09:04.172Z,48.0540
2022-08-04T01:09:21.081Z,48.0660
2022-08-04T01:09:32.377Z,48.3100
2022-08-04T01:09:43.425Z,48.1970
2022-08-04T01:09:54.487Z,48.0740
2022-08-04T01:10:05.559Z,48.0420
2022-08-04T01:10:17.683Z,48.0400
2022-08-04T01:10:28.936Z,48.0820
2022-08-04T01:10:40.006Z,48.0580
2022-08-04T01:10:51.079Z,48.0400
2022-08-04T01:11:02.132Z,48.0080
2022-08-04T01:11:13.196Z,47.9960
2022-08-04T01:11:24.274Z,47.9840
2022-08-04T01:11:57.063Z,47.9900
2022-08-04T01:11:57.165Z,48.2010
2022-08-04T01:12:09.261Z,48.2820
2022-08-04T01:12:20.337Z,48.1410
2022-08-04T01:12:31.409Z,48.0360
2022-08-04T01:12:42.457Z,48.0020
2022-08-04T01:12:53.516Z,47.9510
2022-08-04T01:13:07.801Z,47.9460
2022-08-04T01:13:21.562Z,48.1830
2022-08-04T01:13:32.626Z,48.0640
2022-08-04T01:13:43.770Z,47.9780
2022-08-04T01:13:54.842Z,47.9390
2022-08-04T01:14:05.957Z,47.9510
2022-08-04T01:14:17.021Z,47.9390
2022-08-04T01:14:28.089Z,47.9330
2022-08-04T01:14:39.160Z,47.9150
2022-08-04T01:14:50.228Z,47.9150
2022-08-04T01:15:01.300Z,47.9270
2022-08-04T01:15:12.358Z,47.9210
2022-08-04T01:15:23.433Z,47.9390
2022-08-04T01:15:59.785Z,48.1790
2022-08-04T01:16:00.014Z,47.9390
2022-08-04T01:16:08.409Z,48.3040
2022-08-04T01:16:19.482Z,48.1280
2022-08-04T01:16:30.547Z,48.0420
2022-08-04T01:16:41.618Z,47.9980
2022-08-04T01:16:53.034Z,47.9670
2022-08-04T01:17:04.104Z,47.9860
2022-08-04T01:17:15.200Z,47.9550
2022-08-04T01:17:26.259Z,47.9490
2022-08-04T01:17:37.330Z,47.9310
2022-08-04T01:17:48.368Z,47.9490
2022-08-04T01:17:59.443Z,47.9490
2022-08-04T01:18:10.517Z,47.9610
2022-08-04T01:18:21.561Z,47.9610
2022-08-04T01:18:32.603Z,47.9370
2022-08-04T01:18:43.674Z,47.9230
2022-08-04T01:18:54.769Z,47.9230
2022-08-04T01:19:05.817Z,47.9230
2022-08-04T01:19:16.907Z,47.8990
2022-08-04T01:19:29.129Z,47.9490
2022-08-04T01:19:40.969Z,47.9670
2022-08-04T01:19:52.049Z,47.9430
2022-08-04T01:20:03.142Z,47.9430
2022-08-04T01:20:14.217Z,47.9370
2022-08-04T01:20:25.285Z,47.9310
2022-08-04T01:20:36.331Z,47.9170
2022-08-04T01:20:48.621Z,47.9790
2022-08-04T01:20:59.698Z,47.8930
2022-08-04T01:21:10.752Z,47.8930
2022-08-04T01:21:21.829Z,47.8870
2022-08-04T01:21:32.859Z,47.8870
2022-08-04T01:21:43.929Z,47.9050
2022-08-04T01:21:55.820Z,47.9430
2022-08-04T01:22:06.880Z,47.9230
2022-08-04T01:22:17.938Z,47.9110
2022-08-04T01:22:29.154Z,47.9110
2022-08-04T01:22:40.211Z,47.9230
2022-08-04T01:22:51.258Z,47.9050
2022-08-04T01:23:02.415Z,47.8750
2022-08-04T01:23:13.836Z,47.8690
2022-08-04T01:23:24.900Z,47.8750
2022-08-04T01:23:35.976Z,47.8690
2022-08-04T01:23:47.045Z,47.8750
2022-08-04T01:23:58.167Z,47.8930
2022-08-04T01:24:09.228Z,47.8990
2022-08-04T01:24:21.850Z,47.9670
2022-08-04T01:24:34.596Z,48.0120
2022-08-04T01:24:46.322Z,48.0120
2022-08-04T01:25:02.329Z,48.1410
2022-08-04T01:25:16.055Z,48.1970
2022-08-04T01:25:27.886Z,48.0700
2022-08-04T01:25:42.285Z,48.1510
2022-08-04T01:25:53.356Z,48.0140
2022-08-04T01:26:43.042Z,48.1510
2022-08-04T01:26:43.042Z,48.3640
2022-08-04T01:26:43.411Z,48.3020
2022-08-04T01:26:58.696Z,48.3640
2022-08-04T01:27:09.968Z,48.2150
2022-08-04T01:27:21.332Z,48.1000
2022-08-04T01:27:34.094Z,48.1520
2022-08-04T01:27:48.885Z,48.2410
2022-08-04T01:27:59.956Z,48.0830
2022-08-04T01:28:11.034Z,48.0470
2022-08-04T01:28:24.541Z,48.1460
2022-08-04T01:28:41.119Z,48.1520
2022-08-04T01:28:53.955Z,48.3150
2022-08-04T01:29:06.216Z,48.2470
2022-08-04T01:29:19.275Z,48.2000
2022-08-04T01:29:46.727Z,48.1720
2022-08-04T01:29:48.951Z,48.2950
2022-08-04T01:30:00.244Z,48.1840
2022-08-04T01:30:11.315Z,48.0780
2022-08-04T01:30:22.373Z,48.0430
2022-08-04T01:30:33.436Z,48.0080
2022-08-04T01:30:44.515Z,47.9950
2022-08-04T01:30:56.021Z,47.9730
2022-08-04T01:31:07.079Z,47.9980
2022-08-04T01:31:24.062Z,48.2430
2022-08-04T01:31:35.139Z,48.1400
2022-08-04T01:31:46.227Z,48.0530
2022-08-04T01:31:57.385Z,48.0490
2022-08-04T01:32:08.457Z,48.0490
2022-08-04T01:32:19.527Z,48.0370
2022-08-04T01:32:31.966Z,48.0940
2022-08-04T01:32:43.028Z,48.0570
2022-08-04T01:32:54.099Z,48.0320
2022-08-04T01:33:05.177Z,48.0140
2022-08-04T01:33:16.247Z,48.0080
2022-08-04T01:33:27.288Z,47.9980
2022-08-04T01:34:03.113Z,47.9860
2022-08-04T01:34:04.051Z,48.2500
2022-08-04T01:34:12.297Z,48.3580
2022-08-04T01:34:23.377Z,48.1900
2022-08-04T01:34:34.439Z,48.1040
2022-08-04T01:34:45.485Z,48.0720
2022-08-04T01:34:56.556Z,48.0590
2022-08-04T01:35:07.607Z,48.0370
2022-08-04T01:35:22.157Z,48.0190
2022-08-04T01:35:46.961Z,48.2670
2022-08-04T01:35:52.724Z,48.3840
2022-08-04T01:36:03.808Z,48.2310
2022-08-04T01:36:15.047Z,48.1520
2022-08-04T01:36:26.220Z,48.1160
2022-08-04T01:36:37.363Z,48.1040
2022-08-04T01:36:50.075Z,48.0920
2022-08-04T01:37:02.009Z,48.2080
2022-08-04T01:37:13.129Z,48.1160
2022-08-04T01:37:24.187Z,48.0780
2022-08-04T01:37:35.257Z,48.0650
2022-08-04T01:37:46.336Z,48.0590
2022-08-04T01:37:57.397Z,48.0470
2022-08-04T01:38:21.174Z,48.0590
2022-08-04T01:38:25.416Z,48.2830
2022-08-04T01:38:36.486Z,48.1840
2022-08-04T01:38:47.586Z,48.0780
2022-08-04T01:38:58.758Z,48.0430
2022-08-04T01:39:09.848Z,48.0250
2022-08-04T01:39:21.117Z,48.0200
2022-08-04T01:39:32.448Z,48.0380
2022-08-04T01:39:43.541Z,48.0520
2022-08-04T01:39:54.617Z,48.0570
2022-08-04T01:40:05.663Z,48.0570
2022-08-04T01:40:16.929Z,48.0490
2022-08-04T01:40:27.976Z,48.0570
2022-08-04T01:40:39.048Z,48.0430
2022-08-04T01:40:50.108Z,48.0570
2022-08-04T01:41:01.169Z,48.0490
2022-08-04T01:41:12.253Z,48.0430
2022-08-04T01:41:32.250Z,48.0490
2022-08-04T01:41:40.297Z,48.2770
2022-08-04T01:41:58.332Z,48.3640
2022-08-04T01:42:09.950Z,48.2870
2022-08-04T01:42:31.989Z,48.1440
2022-08-04T01:42:37.939Z,48.3680
2022-08-04T01:42:49.008Z,48.2470
2022-08-04T01:43:00.083Z,48.1740
2022-08-04T01:43:11.167Z,48.1560
2022-08-04T01:43:22.247Z,48.1560
2022-08-04T01:43:33.308Z,48.1680
2022-08-04T01:43:44.365Z,48.1680
2022-08-04T01:43:55.408Z,48.1500
2022-08-04T01:44:06.484Z,48.1180
2022-08-04T01:44:17.551Z,48.1220
2022-08-04T01:44:28.665Z,48.1220
2022-08-04T01:44:39.729Z,48.1280
2022-08-04T01:44:50.803Z,48.1160
2022-08-04T01:45:01.871Z,48.1340
2022-08-04T01:45:12.963Z,48.1160
2022-08-04T01:45:24.027Z,48.1040
2022-08-04T01:45:35.130Z,48.0920
2022-08-04T01:45:46.188Z,48.0780
2022-08-04T01:45:57.259Z,48.0830
2022-08-04T01:46:08.317Z,48.0920
2022-08-04T01:46:19.389Z,48.0830
2022-08-04T01:46:30.457Z,48.0780
2022-08-04T01:46:41.497Z,48.0980
2022-08-04T01:46:52.556Z,48.1060
2022-08-04T01:47:03.618Z,48.0880
2022-08-04T01:47:14.687Z,48.0750
2022-08-04T01:47:26.267Z,48.0880
2022-08-04T01:47:37.338Z,48.0520
2022-08-04T01:47:48.408Z,48.0380
2022-08-04T01:47:59.469Z,48.0880
2022-08-04T01:48:10.537Z,48.0880
2022-08-04T01:48:21.596Z,48.1100
2022-08-04T01:48:34.742Z,48.1960
2022-08-04T01:48:45.804Z,48.1340
2022-08-04T01:48:57.468Z,48.1520
2022-08-04T01:49:08.534Z,48.1460
2022-08-04T01:49:21.145Z,48.2410
2022-08-04T01:49:40.648Z,48.1680
2022-08-04T01:49:49.198Z,48.3800
2022-08-04T01:50:00.258Z,48.2890
2022-08-04T01:50:11.325Z,48.2020
2022-08-04T01:50:22.396Z,48.1660
2022-08-04T01:50:33.457Z,48.1500
2022-08-04T01:50:44.528Z,48.1440
2022-08-04T01:50:55.604Z,48.1160
2022-08-04T01:51:06.671Z,48.1460
2022-08-04T01:51:17.728Z,48.1720
2022-08-04T01:51:28.776Z,48.1780
2022-08-04T01:51:39.849Z,48.1580
2022-08-04T01:51:50.928Z,48.1400
2022-08-04T01:52:02.121Z,48.1340
2022-08-04T01:52:13.178Z,48.1580
2022-08-04T01:52:24.250Z,48.1460
2022-08-04T01:52:35.306Z,48.1400
2022-08-04T01:52:50.691Z,48.1220
2022-08-04T01:53:02.244Z,48.3860
2022-08-04T01:53:13.316Z,48.2870
2022-08-04T01:53:24.367Z,48.2490
2022-08-04T01:53:35.438Z,48.2430
2022-08-04T01:53:46.506Z,48.2610
2022-08-04T01:53:57.588Z,48.2730
2022-08-04T01:54:08.648Z,48.2730
2022-08-04T01:54:19.839Z,48.2550
2022-08-04T01:54:31.195Z,48.2490
2022-08-04T01:54:42.249Z,48.2490
2022-08-04T01:54:53.311Z,48.2490
2022-08-04T01:55:04.362Z,48.2370
2022-08-04T01:55:15.436Z,48.2200
2022-08-04T01:55:54.168Z,48.4480
2022-08-04T01:55:54.407Z,48.2150
2022-08-04T01:56:00.392Z,48.5740
2022-08-04T01:56:11.465Z,48.4100
2022-08-04T01:56:22.525Z,48.3170
2022-08-04T01:56:33.728Z,48.2930
2022-08-04T01:56:44.805Z,48.2990
2022-08-04T01:56:55.866Z,48.2930
2022-08-04T01:57:37.081Z,48.3050
2022-08-04T01:57:38.903Z,48.5540
2022-08-04T01:57:40.958Z,48.6450
2022-08-04T01:57:52.040Z,48.4700
2022-08-04T01:58:03.105Z,48.3820
2022-08-04T01:58:14.154Z,48.3450
2022-08-04T01:58:25.211Z,48.3350
2022-08-04T01:58:36.275Z,48.3110
2022-08-04T01:58:47.314Z,48.2930
2022-08-04T01:58:58.385Z,48.2930
2022-08-04T01:59:09.458Z,48.2870
2022-08-04T01:59:20.640Z,48.2770
2022-08-04T01:59:31.701Z,48.2830
2022-08-04T01:59:42.780Z,48.2770
2022-08-04T01:59:53.847Z,48.2670
2022-08-04T02:00:07.430Z,48.4480
2022-08-04T02:00:18.497Z,48.3740
2022-08-04T02:00:29.554Z,48.3620
2022-08-04T02:00:40.608Z,48.3290
2022-08-04T02:00:56.254Z,48.3230
2022-08-04T02:01:08.505Z,48.5510
2022-08-04T02:01:20.189Z,48.4700
2022-08-04T02:01:31.391Z,48.3820
2022-08-04T02:01:42.611Z,48.3390
2022-08-04T02:01:53.810Z,48.3390
2022-08-04T02:02:05.056Z,48.3350
2022-08-04T02:02:16.858Z,48.3490
2022-08-04T02:02:28.777Z,48.3680
2022-08-04T02:02:40.219Z,48.3290
2022-08-04T02:02:51.434Z,48.3110
2022-08-04T02:03:02.682Z,48.2870
2022-08-04T02:03:13.735Z,48.2670
2022-08-04T02:04:18.276Z,48.2550
2022-08-04T02:04:18.584Z,48.5820
2022-08-04T02:04:19.910Z,48.4910
2022-08-04T02:04:21.128Z,48.6080
2022-08-04T02:04:32.690Z,48.6440
2022-08-04T02:04:43.789Z,48.4640
2022-08-04T02:04:54.851Z,48.3760
2022-08-04T02:05:05.912Z,48.3070
2022-08-04T02:05:16.989Z,48.3210
2022-08-04T02:06:02.349Z,48.5510
2022-08-04T02:06:03.143Z,48.6080
2022-08-04T02:06:03.431Z,48.2990
2022-08-04T02:06:15.378Z,48.5750
2022-08-04T02:06:26.448Z,48.4200
2022-08-04T02:06:37.510Z,48.3640
2022-08-04T02:06:48.569Z,48.2950
2022-08-04T02:06:59.639Z,48.2990
2022-08-04T02:07:10.724Z,48.2930
2022-08-04T02:07:27.677Z,48.5450
2022-08-04T02:07:38.739Z,48.4140
2022-08-04T02:07:49.828Z,48.3070
2022-08-04T02:08:00.906Z,48.2810
2022-08-04T02:08:11.988Z,48.2550
2022-08-04T02:08:23.060Z,48.2370
2022-08-04T02:08:38.499Z,48.4550
2022-08-04T02:08:49.565Z,48.2990
2022-08-04T02:09:00.650Z,48.2550
2022-08-04T02:09:11.717Z,48.2430
2022-08-04T02:09:22.768Z,48.2370
2022-08-04T02:09:34.050Z,48.2370
2022-08-04T02:09:54.544Z,48.5330
2022-08-04T02:10:06.542Z,48.5820
2022-08-04T02:10:17.739Z,48.3570
2022-08-04T02:10:28.788Z,48.2890
2022-08-04T02:10:39.870Z,48.2330
2022-08-04T02:10:50.940Z,48.2370
2022-08-04T02:11:02.012Z,48.2300
2022-08-04T02:11:13.078Z,48.2430
2022-08-04T02:11:24.146Z,48.2710
2022-08-04T02:11:35.225Z,48.2530
2022-08-04T02:11:46.277Z,48.2400
2022-08-04T02:11:57.350Z,48.2200
2022-08-04T02:12:16.268Z,48.2370
2022-08-04T02:12:25.388Z,48.4700
2022-08-04T02:12:36.446Z,48.3520
2022-08-04T02:12:47.508Z,48.2400
2022-08-04T02:12:58.548Z,48.2180
2022-08-04T02:13:09.618Z,48.1800
2022-08-04T02:13:20.679Z,48.1800
2022-08-04T02:13:31.748Z,48.1860
2022-08-04T02:13:42.804Z,48.1860
2022-08-04T02:13:53.858Z,48.1920
2022-08-04T02:14:04.928Z,48.1980
2022-08-04T02:14:15.978Z,48.2120
2022-08-04T02:14:27.058Z,48.2240
2022-08-04T02:14:38.140Z,48.1980
2022-08-04T02:14:49.180Z,48.2060
2022-08-04T02:15:00.275Z,48.2060
2022-08-04T02:15:11.337Z,48.2120
2022-08-04T02:15:22.394Z,48.2300
2022-08-04T02:15:33.458Z,48.2240
2022-08-04T02:15:44.528Z,48.2240
2022-08-04T02:15:55.594Z,48.2060
2022-08-04T02:16:06.648Z,48.2060
2022-08-04T02:16:17.726Z,48.2240
2022-08-04T02:16:28.795Z,48.2240
2022-08-04T02:16:39.857Z,48.2370
2022-08-04T02:16:52.505Z,48.2270
2022-08-04T02:17:04.018Z,48.3640
2022-08-04T02:17:15.079Z,48.3070
2022-08-04T02:17:26.128Z,48.2710
2022-08-04T02:17:37.193Z,48.2470
2022-08-04T02:17:48.258Z,48.2330
2022-08-04T02:17:59.327Z,48.2400
2022-08-04T02:18:11.842Z,48.3210
2022-08-04T02:18:22.922Z,48.2770
2022-08-04T02:18:33.969Z,48.2330
2022-08-04T02:18:45.041Z,48.2200
2022-08-04T02:18:56.097Z,48.2240
2022-08-04T02:19:07.179Z,48.2120
2022-08-04T02:19:24.160Z,48.4650
2022-08-04T02:19:35.244Z,48.3760
2022-08-04T02:19:46.297Z,48.2770
2022-08-04T02:19:57.353Z,48.2590
2022-08-04T02:20:08.462Z,48.2530
2022-08-04T02:20:19.514Z,48.2530
2022-08-04T02:20:30.584Z,48.2530
2022-08-04T02:20:41.647Z,48.2530
2022-08-04T02:20:52.722Z,48.2590
2022-08-04T02:21:03.766Z,48.2590
2022-08-04T02:21:15.095Z,48.2520
2022-08-04T02:21:26.155Z,48.2700
2022-08-04T02:21:42.248Z,48.2650
2022-08-04T02:21:54.174Z,48.5390
2022-08-04T02:22:05.244Z,48.4300
2022-08-04T02:22:16.439Z,48.3790